createdAt,value
2017-11-13T13:50:31.335Z,8.4
2017-11-13T13:51:34.005Z,8.6
2017-11-13T13:52:37.381Z,8.7
2017-11-13T13:53:41.504Z,8.7
2017-11-13T13:54:45.431Z,8.6
2017-11-13T13:55:48.890Z,8.5
2017-11-13T13:56:53.021Z,8.5
2017-11-13T13:57:55.546Z,8.5
2017-11-13T13:58:58.649Z,8.4
2017-11-13T14:00:01.385Z,8.4
2017-11-13T14:01:04.661Z,8.5
2017-11-13T14:02:07.154Z,8.4
2017-11-13T14:03:10.077Z,8.5
2017-11-13T14:04:13.596Z,8.4
2017-11-13T14:05:17.575Z,8.5
2017-11-13T14:06:21.860Z,8.5
2017-11-13T14:07:25.240Z,8.5
2017-11-13T14:08:28.407Z,8.5
2017-11-13T14:09:31.366Z,8.5
2017-11-13T14:10:34.549Z,8.4
2017-11-13T14:11:37.510Z,8.4
2017-11-13T14:12:40.062Z,8.4
2017-11-13T14:13:42.661Z,8.5
2017-11-13T14:14:45.611Z,8.4
2017-11-13T14:15:48.231Z,8.4
2017-11-13T14:16:50.670Z,8.3
2017-11-13T14:17:53.108Z,8.3
2017-11-13T14:18:55.565Z,8.3
2017-11-13T14:19:58.023Z,8.3
2017-11-13T14:21:00.479Z,8.1
2017-11-13T14:22:02.937Z,8
2017-11-13T14:23:05.371Z,8
2017-11-13T14:24:07.843Z,8
2017-11-13T14:25:10.278Z,7.9
2017-11-13T14:26:12.738Z,7.9
2017-11-13T14:27:15.174Z,7.9
2017-11-13T14:28:17.618Z,7.8
2017-11-13T14:29:20.044Z,7.8
2017-11-13T14:30:22.469Z,7.8
2017-11-13T14:31:24.919Z,7.7
2017-11-13T14:32:27.733Z,7.7
2017-11-13T14:33:30.536Z,7.6
2017-11-13T14:34:32.963Z,7.6
2017-11-13T14:35:35.407Z,7.5
2017-11-13T14:36:37.833Z,7.5
2017-11-13T14:37:40.278Z,7.5
2017-11-13T14:38:42.711Z,7.5
2017-11-13T14:39:45.137Z,7.5
2017-11-13T14:40:47.573Z,7.4
2017-11-13T14:41:50.014Z,7.3
2017-11-13T14:42:52.453Z,7.3
2017-11-13T14:43:54.894Z,7.3
2017-11-13T14:44:57.358Z,7.3
2017-11-13T14:45:59.792Z,7.2
2017-11-13T14:47:02.235Z,7.2
2017-11-13T14:48:04.661Z,7.2
2017-11-13T14:49:07.080Z,7.2
2017-11-13T14:50:09.506Z,7.2
2017-11-13T14:51:11.928Z,7.1
2017-11-13T14:52:14.362Z,7.1
2017-11-13T14:53:16.815Z,7
2017-11-13T14:54:19.241Z,7
2017-11-13T14:55:21.680Z,6.9
2017-11-13T14:56:24.099Z,6.9
2017-11-13T14:57:26.532Z,6.9
2017-11-13T14:58:28.961Z,6.9
2017-11-13T14:59:31.389Z,6.8
2017-11-13T15:00:33.814Z,6.8
2017-11-13T15:01:36.244Z,6.8
2017-11-13T15:02:38.675Z,6.8
2017-11-13T15:03:41.478Z,6.8
2017-11-13T15:04:43.904Z,6.7
2017-11-13T15:05:46.333Z,6.7
2017-11-13T15:06:48.772Z,6.6
2017-11-13T15:07:51.194Z,6.6
2017-11-13T15:08:53.623Z,6.6
2017-11-13T15:09:56.058Z,6.6
2017-11-13T15:10:58.473Z,6.6
2017-11-13T15:12:00.913Z,6.5
2017-11-13T15:13:03.330Z,6.5
2017-11-13T15:14:05.757Z,6.4
2017-11-13T15:15:08.186Z,6.4
2017-11-13T15:16:10.609Z,6.4
2017-11-13T15:17:13.049Z,6.4
2017-11-13T15:18:15.477Z,6.4
2017-11-13T15:19:17.921Z,6.4
2017-11-13T15:20:20.344Z,6.5
2017-11-13T15:21:23.134Z,6.4
2017-11-13T15:22:25.574Z,6.3
2017-11-13T15:23:27.995Z,6.3
2017-11-13T15:24:30.459Z,6.3
2017-11-13T15:25:32.890Z,6.3
2017-11-13T15:26:35.315Z,6.3
2017-11-13T15:27:38.121Z,6.2
2017-11-13T15:28:40.539Z,6.2
2017-11-13T15:29:42.964Z,6.1
2017-11-13T15:30:45.394Z,6.1
2017-11-13T15:31:47.818Z,6.1
2017-11-13T15:32:50.252Z,6
2017-11-13T15:33:52.679Z,6
2017-11-13T15:34:55.127Z,6
2017-11-13T15:35:57.917Z,5.9
2017-11-13T15:37:00.358Z,5.9
2017-11-13T15:38:02.782Z,5.9
2017-11-13T15:39:05.203Z,5.8
2017-11-13T15:40:07.647Z,5.8
2017-11-13T15:41:10.114Z,5.7
2017-11-13T15:42:12.538Z,5.7
2017-11-13T15:43:14.973Z,5.7
2017-11-13T15:44:17.395Z,5.7
2017-11-13T15:45:19.827Z,5.6
2017-11-13T15:46:22.279Z,5.6
2017-11-13T15:47:24.724Z,5.6
2017-11-13T15:48:27.161Z,5.6
2017-11-13T15:49:29.594Z,5.5
2017-11-13T15:50:32.018Z,5.5
2017-11-13T15:51:34.442Z,5.5
2017-11-13T15:52:36.878Z,5.5
2017-11-13T15:53:39.297Z,5.5
2017-11-13T15:54:41.751Z,5.5
2017-11-13T15:55:44.182Z,5.5
2017-11-13T15:56:46.621Z,5.5
2017-11-13T15:57:49.055Z,5.4
2017-11-13T15:58:51.476Z,5.4
2017-11-13T15:59:53.934Z,5.3
2017-11-13T16:00:56.351Z,5.3
2017-11-13T16:01:58.778Z,5.3
2017-11-13T16:03:01.222Z,5.3
2017-11-13T16:04:03.724Z,5.2
2017-11-13T16:05:08.637Z,5.2
2017-11-13T16:06:13.691Z,5.2
2017-11-13T16:07:17.827Z,5.2
2017-11-13T16:08:27.472Z,5.2
2017-11-13T16:09:34.972Z,5.2
2017-11-13T16:10:40.192Z,5.2
2017-11-13T16:11:42.794Z,5.2
2017-11-13T16:12:48.474Z,5.2
2017-11-13T16:13:53.950Z,5.2
2017-11-13T16:15:01.240Z,5.2
2017-11-13T16:16:08.199Z,5.1
2017-11-13T16:17:14.464Z,5.1
2017-11-13T16:18:22.244Z,5.1
2017-11-13T16:19:29.107Z,5.1
2017-11-13T16:20:37.728Z,5.1
2017-11-13T16:21:42.814Z,5.1
2017-11-13T16:22:50.994Z,5.1
2017-11-13T16:23:59.393Z,5
2017-11-13T16:25:04.165Z,5.1
2017-11-13T16:26:06.592Z,5.1
2017-11-13T16:27:09.015Z,5.1
2017-11-13T16:28:11.456Z,5.1
2017-11-13T16:29:14.607Z,5.1
2017-11-13T16:30:17.031Z,5.1
2017-11-13T16:31:19.465Z,5.1
2017-11-13T16:32:21.897Z,5.1
2017-11-13T16:33:24.323Z,5.1
2017-11-13T16:34:26.754Z,5.1
2017-11-13T16:35:29.285Z,5.1
2017-11-13T16:36:31.713Z,5.1
2017-11-13T16:37:34.137Z,5.1
2017-11-13T16:38:36.570Z,5.2
2017-11-13T16:39:39.078Z,5.1
2017-11-13T16:40:41.514Z,5.2
2017-11-13T16:41:43.947Z,5.2
2017-11-13T16:42:46.403Z,5.1
2017-11-13T16:43:48.926Z,5.1
2017-11-13T16:44:51.371Z,5.1
2017-11-13T16:45:53.811Z,5.1
2017-11-13T16:46:56.243Z,5.2
2017-11-13T16:47:59.017Z,5.2
2017-11-13T16:49:01.442Z,5.2
2017-11-13T16:50:03.870Z,5.2
2017-11-13T16:51:06.298Z,5.2
2017-11-13T16:52:08.714Z,5.2
2017-11-13T16:53:11.145Z,5.2
2017-11-13T16:54:13.584Z,5.3
2017-11-13T16:55:16.045Z,5.3
2017-11-13T16:56:18.491Z,5.3
2017-11-13T16:57:20.921Z,5.3
2017-11-13T16:58:23.355Z,5.3
2017-11-13T16:59:25.778Z,5.2
2017-11-13T17:00:28.201Z,5.2
2017-11-13T17:01:30.613Z,5.2
2017-11-13T17:02:33.406Z,5.2
2017-11-13T17:03:35.831Z,5.1
2017-11-13T17:04:38.621Z,5.1
2017-11-13T17:05:41.059Z,5.1
2017-11-13T17:06:43.484Z,5.1
2017-11-13T17:07:45.916Z,5.1
2017-11-13T17:08:48.359Z,5.1
2017-11-13T17:09:50.779Z,5.1
2017-11-13T17:10:53.206Z,5
2017-11-13T17:11:55.637Z,5
2017-11-13T17:12:58.065Z,5
2017-11-13T17:14:00.489Z,5
2017-11-13T17:15:02.923Z,5.1
2017-11-13T17:16:05.332Z,5.1
2017-11-13T17:17:07.757Z,5.1
2017-11-13T17:18:10.187Z,5.1
2017-11-13T17:19:12.612Z,5.1
2017-11-13T17:20:15.034Z,5
2017-11-13T17:21:17.461Z,5
2017-11-13T17:22:19.905Z,5
2017-11-13T17:23:22.326Z,5
2017-11-13T17:24:24.756Z,5
2017-11-13T17:25:27.188Z,4.9
2017-11-13T17:26:29.978Z,4.9
2017-11-13T17:27:32.421Z,4.9
2017-11-13T17:28:34.834Z,4.8
2017-11-13T17:29:37.616Z,4.7
2017-11-13T17:30:40.035Z,4.7
2017-11-13T17:31:42.834Z,4.6
2017-11-13T17:32:45.259Z,4.6
2017-11-13T17:33:47.697Z,4.6
2017-11-13T17:34:50.140Z,4.6
2017-11-13T17:35:52.819Z,4.5
2017-11-13T17:36:55.257Z,4.5
2017-11-13T17:37:57.707Z,4.4
2017-11-13T17:39:00.135Z,4.4
2017-11-13T17:40:03.345Z,4.4
2017-11-13T17:41:05.757Z,4.4
2017-11-13T17:42:08.573Z,4.4
2017-11-13T17:43:11.013Z,4.4
2017-11-13T17:44:13.440Z,4.4
2017-11-13T17:45:15.866Z,4.4
2017-11-13T17:46:18.312Z,4.3
2017-11-13T17:47:20.735Z,4.3
2017-11-13T17:48:23.161Z,4.2
2017-11-13T17:49:25.585Z,4.2
2017-11-13T17:50:28.030Z,4.1
2017-11-13T17:51:30.484Z,4.1
2017-11-13T17:52:32.905Z,4
2017-11-13T17:53:35.324Z,4
2017-11-13T17:54:37.786Z,4
2017-11-13T17:55:40.205Z,4
2017-11-13T17:56:42.675Z,3.9
2017-11-13T17:57:45.472Z,3.9
2017-11-13T17:58:47.901Z,3.8
2017-11-13T17:59:50.329Z,3.7
2017-11-13T18:00:52.784Z,3.7
2017-11-13T18:01:55.209Z,3.7
2017-11-13T18:02:57.689Z,3.7
2017-11-13T18:04:00.323Z,3.7
2017-11-13T18:05:04.707Z,3.7
2017-11-13T18:06:09.647Z,3.6
2017-11-13T18:07:16.186Z,3.6
2017-11-13T18:08:22.315Z,3.5
2017-11-13T18:09:26.318Z,3.5
2017-11-13T18:10:30.515Z,3.4
2017-11-13T18:11:34.494Z,3.4
2017-11-13T18:12:39.450Z,3.4
2017-11-13T18:13:45.626Z,3.3
2017-11-13T18:14:50.214Z,3.3
2017-11-13T18:15:53.304Z,3.2
2017-11-13T18:16:56.581Z,3.2
2017-11-13T18:17:59.429Z,3.2
2017-11-13T18:19:02.627Z,3.1
2017-11-13T18:20:05.554Z,3.1
2017-11-13T18:21:08.267Z,3
2017-11-13T18:22:11.315Z,3
2017-11-13T18:23:14.228Z,3
2017-11-13T18:24:17.662Z,3
2017-11-13T18:25:20.497Z,2.9
2017-11-13T18:26:23.396Z,2.9
2017-11-13T18:27:26.311Z,2.9
2017-11-13T18:28:29.086Z,2.8
2017-11-13T18:29:32.099Z,2.8
2017-11-13T18:30:34.986Z,2.8
2017-11-13T18:31:37.788Z,2.7
2017-11-13T18:32:41.116Z,2.7
2017-11-13T18:33:45.512Z,2.7
2017-11-13T18:34:50.009Z,2.7
2017-11-13T18:35:53.583Z,2.7
2017-11-13T18:36:57.507Z,2.7
2017-11-13T18:38:03.076Z,2.7
2017-11-13T18:39:07.697Z,2.6
2017-11-13T18:40:12.059Z,2.6
2017-11-13T18:41:16.061Z,2.6
2017-11-13T18:42:20.067Z,2.5
2017-11-13T18:43:24.500Z,2.5
2017-11-13T18:44:28.100Z,2.5
2017-11-13T18:45:31.951Z,2.5
2017-11-13T18:46:35.733Z,2.4
2017-11-13T18:47:39.896Z,2.4
2017-11-13T18:48:44.200Z,2.4
2017-11-13T18:49:48.910Z,2.4
2017-11-13T18:50:53.481Z,2.3
2017-11-13T18:51:59.009Z,2.3
2017-11-13T18:53:03.010Z,2.2
2017-11-13T18:54:08.366Z,2.2
2017-11-13T18:55:12.231Z,2.2
2017-11-13T18:56:16.678Z,2.2
2017-11-13T18:57:20.759Z,2.2
2017-11-13T18:58:24.916Z,2.2
2017-11-13T18:59:29.212Z,2.1
2017-11-13T19:00:33.677Z,2.1
2017-11-13T19:01:37.391Z,2
2017-11-13T19:02:41.166Z,2
2017-11-13T19:03:45.128Z,2
2017-11-13T19:04:49.666Z,2
2017-11-13T19:05:53.869Z,2
2017-11-13T19:06:59.055Z,2
2017-11-13T19:08:03.353Z,2
2017-11-13T19:09:06.897Z,1.9
2017-11-13T19:10:10.267Z,1.9
2017-11-13T19:11:13.706Z,1.9
2017-11-13T19:12:18.181Z,1.8
2017-11-13T19:13:22.908Z,1.8
2017-11-13T19:14:27.288Z,1.8
2017-11-13T19:15:31.552Z,1.8
2017-11-13T19:16:36.289Z,1.8
2017-11-13T19:17:40.403Z,1.8
2017-11-13T19:18:44.821Z,1.7
2017-11-13T19:19:49.262Z,1.7
2017-11-13T19:20:54.835Z,1.7
2017-11-13T19:22:00.083Z,1.6
2017-11-13T19:23:04.304Z,1.6
2017-11-13T19:24:09.643Z,1.6
2017-11-13T19:25:14.025Z,1.6
2017-11-13T19:26:18.421Z,1.6
2017-11-13T19:27:23.207Z,1.6
2017-11-13T19:28:28.513Z,1.6
2017-11-13T19:29:32.656Z,1.6
2017-11-13T19:30:38.332Z,1.6
2017-11-13T19:31:43.295Z,1.5
2017-11-13T19:32:47.409Z,1.6
2017-11-13T19:33:51.868Z,1.6
2017-11-13T19:34:56.326Z,1.6
2017-11-13T19:36:00.772Z,1.5
2017-11-13T19:37:05.429Z,1.5
2017-11-13T19:38:09.431Z,1.5
2017-11-13T19:39:14.058Z,1.5
2017-11-13T19:40:18.602Z,1.4
2017-11-13T19:41:22.471Z,1.4
2017-11-13T19:42:27.513Z,1.3
2017-11-13T19:43:31.553Z,1.3
2017-11-13T19:44:35.363Z,1.3
2017-11-13T19:45:39.433Z,1.3
2017-11-13T19:46:43.628Z,1.3
2017-11-13T19:47:47.927Z,1.3
2017-11-13T19:48:52.554Z,1.3
2017-11-13T19:49:56.789Z,1.2
2017-11-13T19:51:00.718Z,1.2
2017-11-13T19:52:04.680Z,1.1
2017-11-13T19:53:08.932Z,1.1
2017-11-13T19:54:13.258Z,1.1
2017-11-13T19:55:17.659Z,1.1
2017-11-13T19:56:21.755Z,1
2017-11-13T19:57:25.503Z,1
2017-11-13T19:58:29.479Z,1
2017-11-13T19:59:33.845Z,1
2017-11-13T20:00:38.260Z,1
2017-11-13T20:01:42.955Z,1
2017-11-13T20:02:47.493Z,1
2017-11-13T20:03:51.849Z,0.9
2017-11-13T20:04:54.837Z,1
2017-11-13T20:05:57.262Z,0.9
2017-11-13T20:06:59.681Z,1
2017-11-13T20:08:02.090Z,1
2017-11-13T20:09:04.515Z,0.9
2017-11-13T20:10:06.950Z,0.9
2017-11-13T20:11:09.381Z,1
2017-11-13T20:12:11.801Z,1
2017-11-13T20:13:14.230Z,0.9
2017-11-13T20:14:16.653Z,1
2017-11-13T20:15:19.086Z,0.9
2017-11-13T20:16:21.502Z,0.9
2017-11-13T20:17:23.925Z,0.8
2017-11-13T20:18:26.342Z,0.8
2017-11-13T20:19:28.765Z,0.8
2017-11-13T20:20:31.199Z,0.7
2017-11-13T20:21:33.614Z,0.7
2017-11-13T20:22:36.047Z,0.7
2017-11-13T20:23:38.830Z,0.7
2017-11-13T20:24:41.258Z,0.7
2017-11-13T20:25:44.036Z,0.7
2017-11-13T20:26:46.461Z,0.7
2017-11-13T20:27:48.884Z,0.7
2017-11-13T20:28:51.312Z,0.7
2017-11-13T20:29:54.457Z,0.6
2017-11-13T20:30:56.888Z,0.8
2017-11-13T20:31:59.325Z,0.7
2017-11-13T20:33:01.744Z,0.7
2017-11-13T20:34:04.177Z,0.6
2017-11-13T20:35:06.598Z,0.6
2017-11-13T20:36:09.384Z,0.6
2017-11-13T20:37:11.806Z,0.6
2017-11-13T20:38:14.244Z,0.6
2017-11-13T20:39:16.682Z,0.6
2017-11-13T20:40:19.114Z,0.5
2017-11-13T20:41:21.554Z,0.5
2017-11-13T20:42:23.963Z,0.5
2017-11-13T20:43:26.404Z,0.4
2017-11-13T20:44:29.045Z,0.4
2017-11-13T20:45:31.464Z,0.4
2017-11-13T20:46:33.888Z,0.4
2017-11-13T20:47:36.314Z,0.4
2017-11-13T20:48:38.729Z,0.4
2017-11-13T20:49:41.156Z,0.4
2017-11-13T20:50:43.584Z,0.4
2017-11-13T20:51:46.372Z,0.4
2017-11-13T20:52:48.800Z,0.4
2017-11-13T20:53:51.232Z,0.4
2017-11-13T20:54:54.038Z,0.4
2017-11-13T20:55:56.801Z,0.4
2017-11-13T20:56:59.252Z,0.4
2017-11-13T20:58:01.653Z,0.4
2017-11-13T20:59:04.085Z,0.4
2017-11-13T21:00:06.500Z,0.4
2017-11-13T21:01:08.934Z,0.4
2017-11-13T21:02:11.354Z,0.4
2017-11-13T21:03:13.789Z,0.5
2017-11-13T21:04:16.198Z,0.5
2017-11-13T21:05:18.641Z,0.5
2017-11-13T21:06:21.056Z,0.5
2017-11-13T21:07:23.480Z,0.4
2017-11-13T21:08:26.272Z,0.5
2017-11-13T21:09:29.092Z,0.5
2017-11-13T21:10:31.521Z,0.5
2017-11-13T21:11:33.938Z,0.5
2017-11-13T21:12:36.358Z,0.6
2017-11-13T21:13:38.783Z,0.5
2017-11-13T21:14:41.548Z,0.5
2017-11-13T21:15:43.985Z,0.5
2017-11-13T21:16:46.388Z,0.4
2017-11-13T21:17:48.818Z,0.5
2017-11-13T21:18:51.245Z,0.5
2017-11-13T21:19:54.047Z,0.6
2017-11-13T21:20:56.477Z,0.6
2017-11-13T21:21:59.256Z,0.6
2017-11-13T21:23:01.684Z,0.5
2017-11-13T21:24:04.107Z,0.6
2017-11-13T21:25:06.525Z,0.5
2017-11-13T21:26:08.955Z,0.5
2017-11-13T21:27:11.503Z,0.4
2017-11-13T21:28:13.931Z,0.3
2017-11-13T21:29:16.345Z,0.4
2017-11-13T21:30:18.776Z,0.3
2017-11-13T21:31:21.230Z,0.3
2017-11-13T21:32:23.651Z,0.3
2017-11-13T21:33:26.073Z,0.2
2017-11-13T21:34:30.263Z,0.2
2017-11-13T21:35:32.687Z,0.2
2017-11-13T21:36:35.686Z,0.2
2017-11-13T21:37:38.223Z,0.2
2017-11-13T21:38:40.630Z,0.2
2017-11-13T21:39:43.452Z,0.2
2017-11-13T21:40:45.891Z,0.2
2017-11-13T21:41:48.302Z,0.2
2017-11-13T21:42:50.723Z,0.1
2017-11-13T21:43:53.140Z,0.1
2017-11-13T21:44:55.560Z,0.1
2017-11-13T21:45:58.005Z,0.1
2017-11-13T21:47:00.835Z,0.1
2017-11-13T21:48:03.253Z,0.1
2017-11-13T21:49:05.691Z,0
2017-11-13T21:50:08.138Z,0
2017-11-13T21:51:10.537Z,0.1
2017-11-13T21:52:12.960Z,0.1
2017-11-13T21:53:15.386Z,0
2017-11-13T21:54:17.796Z,0
2017-11-13T21:55:20.235Z,0
2017-11-13T21:56:22.643Z,0
2017-11-13T21:57:25.434Z,0
2017-11-13T21:58:27.860Z,0
2017-11-13T21:59:30.291Z,0
2017-11-13T22:00:33.429Z,0.1
2017-11-13T22:01:35.854Z,0.1
2017-11-13T22:02:38.302Z,0.1
2017-11-13T22:03:40.740Z,0.1
2017-11-13T22:04:43.681Z,0.1
2017-11-13T22:05:46.192Z,0.1
2017-11-13T22:06:48.630Z,0.1
2017-11-13T22:07:51.049Z,0.1
2017-11-13T22:08:53.478Z,0
2017-11-13T22:09:55.913Z,0.1
2017-11-13T22:10:58.683Z,0.2
2017-11-13T22:12:01.839Z,0.3
2017-11-13T22:13:04.622Z,0.3
2017-11-13T22:14:07.025Z,0.2
2017-11-13T22:15:09.457Z,0.2
2017-11-13T22:16:11.892Z,0.3
2017-11-13T22:17:14.346Z,0.3
2017-11-13T22:18:16.760Z,0.3
2017-11-13T22:19:19.197Z,0.3
2017-11-13T22:20:21.616Z,0.3
2017-11-13T22:21:24.037Z,0.3
2017-11-13T22:22:26.457Z,0.4
2017-11-13T22:23:28.875Z,0.4
2017-11-13T22:24:31.657Z,0.5
2017-11-13T22:25:34.095Z,0.5
2017-11-13T22:26:36.506Z,0.4
2017-11-13T22:27:38.932Z,0.4
2017-11-13T22:28:41.754Z,0.4
2017-11-13T22:29:44.172Z,0.4
2017-11-13T22:30:46.600Z,0.4
2017-11-13T22:31:49.005Z,0.5
2017-11-13T22:32:51.810Z,0.5
2017-11-13T22:33:54.236Z,0.4
2017-11-13T22:34:56.664Z,0.3
2017-11-13T22:35:59.109Z,0.3
2017-11-13T22:37:01.503Z,0.3
2017-11-13T22:38:03.928Z,0.3
2017-11-13T22:39:06.358Z,0.3
2017-11-13T22:40:08.766Z,0.3
2017-11-13T22:41:11.191Z,0.3
2017-11-13T22:42:13.617Z,0.3
2017-11-13T22:43:16.031Z,0.3
2017-11-13T22:44:18.459Z,0.3
2017-11-13T22:45:20.871Z,0.3
2017-11-13T22:46:23.313Z,0.3
2017-11-13T22:47:25.730Z,0.3
2017-11-13T22:48:28.147Z,0.3
2017-11-13T22:49:30.561Z,0.3
2017-11-13T22:50:32.985Z,0.3
2017-11-13T22:51:35.405Z,0.3
2017-11-13T22:52:37.818Z,0.3
2017-11-13T22:53:40.608Z,0.3
2017-11-13T22:54:43.047Z,0.3
2017-11-13T22:55:45.475Z,0.3
2017-11-13T22:56:47.904Z,0.3
2017-11-13T22:57:50.330Z,0.3
2017-11-13T22:58:52.760Z,0.2
2017-11-13T22:59:55.191Z,0.2
2017-11-13T23:00:57.605Z,0.2
2017-11-13T23:02:00.013Z,0.2
2017-11-13T23:03:02.436Z,0.2
2017-11-13T23:04:04.848Z,0.2
2017-11-13T23:05:07.265Z,0.2
2017-11-13T23:06:09.689Z,0.2
2017-11-13T23:07:12.102Z,0.2
2017-11-13T23:08:14.529Z,0.2
2017-11-13T23:09:16.951Z,0.2
2017-11-13T23:10:19.369Z,0.2
2017-11-13T23:11:21.797Z,0.2
2017-11-13T23:12:24.221Z,0.2
2017-11-13T23:13:26.641Z,0.2
2017-11-13T23:14:29.063Z,0.2
2017-11-13T23:15:31.492Z,0.1
2017-11-13T23:16:33.925Z,0.1
2017-11-13T23:17:36.338Z,0.1
2017-11-13T23:18:39.141Z,0.1
2017-11-13T23:19:41.562Z,0.1
2017-11-13T23:20:43.987Z,0.1
2017-11-13T23:21:46.772Z,0.2
2017-11-13T23:22:49.193Z,0.1
2017-11-13T23:23:51.619Z,0.1
2017-11-13T23:24:54.049Z,0.2
2017-11-13T23:25:56.453Z,0.2
2017-11-13T23:26:59.248Z,0.2
2017-11-13T23:28:01.662Z,0.2
2017-11-13T23:29:04.082Z,0.1
2017-11-13T23:30:06.506Z,0.2
2017-11-13T23:31:09.311Z,0.2
2017-11-13T23:32:11.726Z,0.2
2017-11-13T23:33:14.149Z,0.2
2017-11-13T23:34:16.569Z,0.1
2017-11-13T23:35:19.729Z,0.2
2017-11-13T23:36:22.215Z,0.2
2017-11-13T23:37:24.646Z,0.2
2017-11-13T23:38:27.070Z,0.2
2017-11-13T23:39:29.490Z,0.2
2017-11-13T23:40:31.919Z,0.2
2017-11-13T23:41:34.339Z,0.2
2017-11-13T23:42:37.137Z,0.1
2017-11-13T23:43:39.918Z,0.2
2017-11-13T23:44:42.324Z,0.2
2017-11-13T23:45:44.748Z,0.2
2017-11-13T23:46:47.170Z,0.2
2017-11-13T23:47:49.955Z,0.1
2017-11-13T23:48:52.373Z,0.1
2017-11-13T23:49:54.788Z,0.1
2017-11-13T23:50:57.214Z,0.1
2017-11-13T23:52:00.337Z,0.1
2017-11-13T23:53:02.759Z,0.1
2017-11-13T23:54:05.198Z,0
2017-11-13T23:55:07.616Z,0
2017-11-13T23:56:10.026Z,0
2017-11-13T23:57:12.445Z,0
2017-11-13T23:58:14.868Z,0
2017-11-13T23:59:17.304Z,0
